KUCY/UCY METAR and TAF weather

Enter ICAO airport designator
Station Type Date Time Source
KUCY METAR 2021/04/14 19:10 UTC NOAA

KUCY 141910Z AUTO 02008KT 10SM OVC041 14/09 A3011 RMK A01


Station Type Date Time Source
KUCY Decoded METAR 2021/04/14 19:10 UTC NOAA

Station name not available
Apr 14, 2021 - 03:10 PM EDT / 2021.04.14 1910 UTC
Wind: from the NNE (020 degrees) at 9 MPH (8 KT):0
Visibility: 10 mile(s):0
Sky conditions: overcast
Temperature: 57 F (14 C)
Dew Point: 48 F (9 C)
Relative Humidity: 71%
Pressure (altimeter): 30.11 in. Hg (1019 hPa)
ob: KUCY 141910Z AUTO 02008KT 10SM OVC041 14/09 A3011 RMK A01
cycle: 19

Station Type Date Time Source
KUCY TAF UTC NOAA

Error!

Example: see airport list